createdAt,value
2018-06-16T00:01:31.096Z,10.87
2018-06-16T00:04:00.337Z,15.83
2018-06-16T00:06:29.690Z,12.00
2018-06-16T00:08:59.262Z,14.33
2018-06-16T00:11:28.826Z,13.70
2018-06-16T00:13:58.069Z,13.57
2018-06-16T00:16:27.594Z,15.43
2018-06-16T00:18:56.838Z,14.20
2018-06-16T00:21:26.080Z,18.20
2018-06-16T00:23:55.349Z,14.80
2018-06-16T00:26:24.739Z,15.80
2018-06-16T00:28:54.063Z,15.40
2018-06-16T00:31:23.311Z,16.77
2018-06-16T00:33:52.704Z,13.53
2018-06-16T00:36:22.107Z,13.93
2018-06-16T00:38:51.504Z,15.27
2018-06-16T00:41:20.796Z,14.70
2018-06-16T00:43:50.053Z,17.93
2018-06-16T00:46:19.390Z,16.30
2018-06-16T00:48:48.628Z,15.07
2018-06-16T00:51:17.883Z,14.30
2018-06-16T00:53:47.218Z,13.47
2018-06-16T00:56:16.491Z,12.07
2018-06-16T00:58:45.767Z,12.30
2018-06-16T01:01:15.043Z,16.30
2018-06-16T01:03:44.327Z,15.60
2018-06-16T01:06:13.617Z,18.60
2018-06-16T01:08:42.879Z,17.80
2018-06-16T01:11:12.217Z,20.50
2018-06-16T01:13:41.471Z,14.60
2018-06-16T01:16:10.766Z,16.97
2018-06-16T01:18:40.017Z,18.13
2018-06-16T01:21:09.293Z,15.67
2018-06-16T01:23:38.533Z,18.40
2018-06-16T01:26:07.852Z,21.07
2018-06-16T01:28:37.169Z,14.73
2018-06-16T01:31:06.454Z,15.90
2018-06-16T01:33:35.788Z,16.50
2018-06-16T01:36:05.083Z,15.10
2018-06-16T01:38:34.391Z,15.77
2018-06-16T01:41:03.689Z,17.60
2018-06-16T01:43:32.951Z,17.43
2018-06-16T01:46:02.255Z,20.20
2018-06-16T01:48:31.685Z,20.70
2018-06-16T01:51:01.019Z,17.57
2018-06-16T01:53:30.273Z,15.83
2018-06-16T01:55:59.517Z,16.23
2018-06-16T01:58:29.939Z,16.50
2018-06-16T02:00:59.423Z,18.13
2018-06-16T02:03:28.686Z,18.00
2018-06-16T02:05:58.024Z,19.77
2018-06-16T02:08:27.354Z,15.40
2018-06-16T02:10:56.650Z,15.07
2018-06-16T02:13:26.003Z,15.50
2018-06-16T02:15:55.249Z,18.33
2018-06-16T02:18:24.480Z,13.70
2018-06-16T02:20:53.422Z,16.10
2018-06-16T02:23:22.543Z,14.13
2018-06-16T02:25:52.064Z,19.33
2018-06-16T02:28:21.534Z,16.37
2018-06-16T02:30:50.767Z,14.90
2018-06-16T02:33:19.773Z,17.37
2018-06-16T02:35:48.966Z,16.30
2018-06-16T02:38:18.230Z,14.17
2018-06-16T02:40:48.486Z,16.03
2018-06-16T02:43:17.724Z,14.10
2018-06-16T02:45:46.969Z,12.53
2018-06-16T02:48:16.304Z,14.27
2018-06-16T02:50:45.615Z,16.33
2018-06-16T02:53:14.892Z,20.13
2018-06-16T02:55:44.208Z,14.50
2018-06-16T02:58:13.604Z,15.03
2018-06-16T03:00:42.975Z,17.53
2018-06-16T03:03:12.251Z,18.30
2018-06-16T03:05:41.517Z,12.63
2018-06-16T03:08:10.817Z,13.80
2018-06-16T03:10:40.097Z,15.20
2018-06-16T03:13:09.458Z,13.27
2018-06-16T03:15:38.719Z,14.03
2018-06-16T03:18:08.110Z,18.23
2018-06-16T03:20:37.374Z,14.03
2018-06-16T03:23:06.634Z,16.10
2018-06-16T03:25:35.930Z,13.60
2018-06-16T03:28:05.216Z,18.33
2018-06-16T03:30:34.533Z,16.03
2018-06-16T03:33:03.800Z,13.73
2018-06-16T03:35:33.075Z,16.87
2018-06-16T03:38:02.333Z,12.37
2018-06-16T03:40:31.764Z,14.10
2018-06-16T03:43:01.034Z,12.80
2018-06-16T03:45:30.277Z,14.53
2018-06-16T03:47:59.641Z,14.40
2018-06-16T03:50:29.898Z,16.53
2018-06-16T03:52:59.162Z,14.70
2018-06-16T03:55:28.688Z,12.07
2018-06-16T03:57:57.922Z,12.60
2018-06-16T04:00:27.256Z,12.70
2018-06-16T04:02:56.554Z,13.77
2018-06-16T04:05:26.163Z,14.20
2018-06-16T04:07:55.440Z,13.30
2018-06-16T04:10:24.759Z,13.37
2018-06-16T04:12:54.040Z,11.93
2018-06-16T04:15:23.312Z,10.90
2018-06-16T04:17:52.632Z,20.33
2018-06-16T04:20:21.909Z,12.33
2018-06-16T04:22:52.400Z,14.87
2018-06-16T04:25:21.661Z,12.90
2018-06-16T04:27:51.069Z,13.57
2018-06-16T04:30:20.333Z,12.83
2018-06-16T04:32:49.673Z,13.83
2018-06-16T04:35:18.619Z,11.93
2018-06-16T04:37:47.763Z,11.07
2018-06-16T04:40:17.196Z,12.57
2018-06-16T04:42:46.428Z,10.77
2018-06-16T04:45:15.852Z,13.00
2018-06-16T04:47:45.132Z,11.17
2018-06-16T04:50:14.414Z,12.53
2018-06-16T04:52:43.657Z,12.97
2018-06-16T04:55:12.990Z,11.30
2018-06-16T04:57:42.242Z,11.93
2018-06-16T05:00:11.497Z,11.50
2018-06-16T05:02:40.842Z,13.33
2018-06-16T05:05:10.411Z,11.40
2018-06-16T05:07:39.691Z,11.40
2018-06-16T05:10:09.241Z,12.10
2018-06-16T05:12:38.464Z,12.07
2018-06-16T05:15:08.037Z,10.47
2018-06-16T05:17:37.301Z,12.13
2018-06-16T05:20:06.684Z,11.57
2018-06-16T05:22:35.987Z,11.70
2018-06-16T05:25:04.953Z,14.27
2018-06-16T05:27:34.082Z,15.00
2018-06-16T05:30:03.404Z,11.10
2018-06-16T05:32:32.665Z,11.20
2018-06-16T05:35:02.004Z,13.40
2018-06-16T05:37:31.239Z,12.53
2018-06-16T05:40:00.524Z,14.03
2018-06-16T05:42:29.789Z,11.43
2018-06-16T05:44:59.230Z,15.83
2018-06-16T05:47:28.491Z,17.47
2018-06-16T05:49:57.781Z,16.73
2018-06-16T05:52:27.331Z,13.20
2018-06-16T05:54:56.936Z,15.40
2018-06-16T05:57:26.309Z,15.80
2018-06-16T05:59:55.590Z,14.50
2018-06-16T06:02:24.850Z,12.20
2018-06-16T06:04:54.015Z,14.23
2018-06-16T06:07:23.292Z,13.53
2018-06-16T06:09:52.580Z,12.27
2018-06-16T06:12:21.891Z,16.20
2018-06-16T06:14:51.150Z,10.23
2018-06-16T06:17:20.410Z,15.20
2018-06-16T06:19:49.683Z,8.70
2018-06-16T06:22:18.611Z,14.50
2018-06-16T06:24:47.747Z,11.80
2018-06-16T06:27:16.997Z,9.80
2018-06-16T06:29:46.285Z,9.80
2018-06-16T06:32:15.606Z,35.10
2018-06-16T06:34:45.721Z,17.70
2018-06-16T06:37:15.059Z,20.07
2018-06-16T06:39:43.924Z,16.40
2018-06-16T06:42:13.069Z,11.93
2018-06-16T06:44:42.411Z,11.30
2018-06-16T06:47:11.713Z,13.03
2018-06-16T06:49:41.045Z,14.90
2018-06-16T06:52:10.277Z,54.63
2018-06-16T06:54:39.677Z,11.20
2018-06-16T06:57:08.661Z,9.07
2018-06-16T06:59:37.515Z,13.30
2018-06-16T07:02:06.736Z,11.93
2018-06-16T07:04:35.711Z,13.20
2018-06-16T07:07:04.769Z,11.70
2018-06-16T07:09:34.010Z,17.60
2018-06-16T07:12:03.301Z,10.77
2018-06-16T07:14:32.551Z,14.07
2018-06-16T07:17:01.879Z,12.57
2018-06-16T07:19:31.150Z,11.37
2018-06-16T07:22:00.380Z,13.33
2018-06-16T07:24:29.657Z,14.93
2018-06-16T07:26:58.978Z,10.57
2018-06-16T07:29:28.264Z,15.20
2018-06-16T07:31:57.541Z,11.40
2018-06-16T07:34:26.833Z,12.43
2018-06-16T07:36:56.158Z,16.00
2018-06-16T07:39:25.424Z,14.47
2018-06-16T07:41:54.929Z,8.17
2018-06-16T07:44:24.206Z,13.53
2018-06-16T07:46:53.567Z,15.73
2018-06-16T07:49:22.889Z,14.03
2018-06-16T07:51:52.250Z,9.70
2018-06-16T07:54:21.510Z,10.43
2018-06-16T07:56:50.943Z,11.10
2018-06-16T07:59:20.173Z,10.67
2018-06-16T08:01:49.433Z,9.93
2018-06-16T08:04:18.889Z,16.60
2018-06-16T08:06:48.182Z,13.03
2018-06-16T08:09:17.576Z,12.50
2018-06-16T08:11:46.979Z,16.27
2018-06-16T08:14:16.395Z,14.00
2018-06-16T08:16:45.679Z,12.70
2018-06-16T08:19:14.999Z,21.40
2018-06-16T08:21:44.286Z,13.23
2018-06-16T08:24:13.865Z,11.20
2018-06-16T08:26:43.227Z,10.17
2018-06-16T08:29:12.478Z,11.40
2018-06-16T08:31:41.513Z,12.03
2018-06-16T08:34:10.593Z,10.90
2018-06-16T08:36:39.982Z,10.10
2018-06-16T08:39:11.078Z,9.73
2018-06-16T08:41:41.199Z,14.90
2018-06-16T08:44:10.573Z,12.40
2018-06-16T08:46:39.875Z,9.30
2018-06-16T08:49:10.056Z,9.80
2018-06-16T08:51:39.343Z,9.57
2018-06-16T08:54:08.296Z,13.93
2018-06-16T08:56:37.437Z,10.23
2018-06-16T08:59:06.350Z,9.60
2018-06-16T09:01:35.485Z,9.17
2018-06-16T09:04:04.767Z,8.67
2018-06-16T09:06:34.030Z,9.97
2018-06-16T09:09:03.676Z,10.57
2018-06-16T09:11:33.033Z,7.57
2018-06-16T09:14:02.551Z,7.30
2018-06-16T09:16:31.843Z,6.93
2018-06-16T09:19:01.160Z,9.83
2018-06-16T09:21:30.487Z,14.70
2018-06-16T09:23:59.743Z,7.53
2018-06-16T09:26:29.159Z,8.77
2018-06-16T09:28:58.508Z,9.40
2018-06-16T09:31:27.811Z,7.70
2018-06-16T09:33:57.441Z,10.23
2018-06-16T09:36:26.862Z,7.17
2018-06-16T09:38:55.870Z,5.47
2018-06-16T09:41:25.001Z,6.10
2018-06-16T09:43:54.184Z,6.13
2018-06-16T09:46:23.669Z,6.23
2018-06-16T09:48:53.005Z,6.50
2018-06-16T09:51:23.219Z,5.97
2018-06-16T09:53:52.541Z,7.53
2018-06-16T09:56:21.927Z,5.73
2018-06-16T09:58:51.233Z,6.27
2018-06-16T10:01:20.650Z,7.17
2018-06-16T10:03:49.713Z,7.70
2018-06-16T10:06:18.931Z,3.80
2018-06-16T10:08:48.223Z,4.93
2018-06-16T10:11:17.578Z,4.37
2018-06-16T10:13:47.185Z,5.53
2018-06-16T10:16:16.567Z,6.87
2018-06-16T10:18:45.910Z,5.37
2018-06-16T10:21:15.215Z,6.57
2018-06-16T10:23:44.475Z,6.03
2018-06-16T10:26:13.811Z,3.50
2018-06-16T10:28:43.151Z,3.13
2018-06-16T10:31:12.709Z,6.07
2018-06-16T10:33:41.953Z,3.90
2018-06-16T10:36:11.276Z,4.47
2018-06-16T10:38:40.606Z,5.47
2018-06-16T10:41:09.968Z,6.70
2018-06-16T10:43:39.220Z,5.93
2018-06-16T10:46:08.641Z,6.27
2018-06-16T10:48:37.914Z,5.50
2018-06-16T10:51:07.272Z,3.80
2018-06-16T10:53:36.605Z,4.47
2018-06-16T10:56:06.005Z,6.33
2018-06-16T10:58:35.270Z,5.07
2018-06-16T11:01:04.648Z,7.77
2018-06-16T11:03:34.246Z,3.40
2018-06-16T11:06:03.676Z,4.03
2018-06-16T11:08:33.033Z,3.67
2018-06-16T11:11:02.366Z,9.83
2018-06-16T11:13:31.662Z,3.47
2018-06-16T11:16:01.009Z,4.63
2018-06-16T11:18:30.461Z,4.83
2018-06-16T11:20:59.842Z,3.93
2018-06-16T11:23:30.223Z,5.40
2018-06-16T11:25:59.244Z,4.67
2018-06-16T11:28:28.450Z,3.50
2018-06-16T11:30:57.895Z,4.30
2018-06-16T11:33:27.360Z,4.00
2018-06-16T11:35:56.728Z,3.57
2018-06-16T11:38:26.038Z,4.70
2018-06-16T11:40:55.613Z,2.53
2018-06-16T11:43:25.048Z,3.13
2018-06-16T11:45:55.484Z,4.57
2018-06-16T11:48:24.848Z,3.90
2018-06-16T11:50:54.232Z,7.43
2018-06-16T11:53:24.354Z,4.30
2018-06-16T11:55:53.644Z,4.77
2018-06-16T11:58:23.504Z,4.13
2018-06-16T12:00:52.801Z,6.10
2018-06-16T12:03:23.182Z,5.87
2018-06-16T12:05:52.495Z,8.73
2018-06-16T12:08:21.990Z,5.83
2018-06-16T12:10:51.409Z,5.93
2018-06-16T12:13:20.855Z,4.40
2018-06-16T12:15:50.449Z,5.40
2018-06-16T12:18:19.748Z,4.73
2018-06-16T12:20:49.130Z,4.37
2018-06-16T12:23:18.400Z,7.40
2018-06-16T12:25:47.729Z,6.00
2018-06-16T12:28:17.252Z,5.50
2018-06-16T12:30:46.280Z,7.00
2018-06-16T12:33:15.583Z,9.43
2018-06-16T12:35:44.862Z,5.10
2018-06-16T12:38:14.313Z,4.40
2018-06-16T12:40:43.737Z,4.60
2018-06-16T12:43:13.191Z,4.50
2018-06-16T12:45:42.593Z,3.63
2018-06-16T12:48:11.947Z,5.33
2018-06-16T12:50:41.394Z,4.97
2018-06-16T12:53:10.736Z,4.73
2018-06-16T12:55:40.132Z,5.30
2018-06-16T12:58:09.640Z,11.40
2018-06-16T13:00:38.746Z,5.33
2018-06-16T13:03:08.229Z,6.40
2018-06-16T13:05:37.709Z,6.40
2018-06-16T13:08:07.257Z,9.97
2018-06-16T13:10:37.722Z,7.50
2018-06-16T13:13:07.136Z,7.33
2018-06-16T13:15:37.244Z,8.37
2018-06-16T13:18:07.639Z,5.63
2018-06-16T13:20:37.322Z,5.97
2018-06-16T13:23:06.919Z,6.13
2018-06-16T13:25:36.349Z,4.37
2018-06-16T13:28:06.141Z,4.77
2018-06-16T13:30:35.471Z,11.70
2018-06-16T13:33:04.453Z,3.80
2018-06-16T13:35:33.660Z,9.97
2018-06-16T13:38:02.972Z,8.03
2018-06-16T13:40:32.321Z,5.47
2018-06-16T13:43:01.802Z,5.47
2018-06-16T13:45:31.242Z,8.67
2018-06-16T13:48:01.426Z,6.60
2018-06-16T13:50:30.867Z,10.23
2018-06-16T13:53:01.374Z,6.40
2018-06-16T13:55:31.068Z,10.20
2018-06-16T13:58:00.595Z,6.63
2018-06-16T14:00:29.841Z,7.40
2018-06-16T14:02:58.846Z,8.00
2018-06-16T14:05:28.043Z,8.17
2018-06-16T14:07:57.352Z,15.00
2018-06-16T14:10:26.636Z,9.83
2018-06-16T14:12:55.580Z,9.97
2018-06-16T14:15:24.782Z,9.37
2018-06-16T14:17:54.070Z,9.90
2018-06-16T14:20:24.236Z,7.10
2018-06-16T14:22:53.697Z,6.60
2018-06-16T14:25:23.179Z,8.40
2018-06-16T14:27:53.052Z,9.70
2018-06-16T14:30:22.356Z,7.90
2018-06-16T14:32:51.715Z,6.50
2018-06-16T14:35:20.984Z,7.33
2018-06-16T14:37:50.332Z,6.80
2018-06-16T14:40:19.593Z,7.93
2018-06-16T14:42:49.217Z,13.37
2018-06-16T14:45:18.632Z,9.27
2018-06-16T14:47:48.013Z,6.03
2018-06-16T14:50:17.403Z,7.03
2018-06-16T14:52:47.728Z,7.20
2018-06-16T14:55:17.016Z,7.90
2018-06-16T14:57:46.324Z,7.30
2018-06-16T15:00:15.751Z,6.40
2018-06-16T15:02:45.231Z,13.07
2018-06-16T15:05:15.059Z,6.00
2018-06-16T15:07:44.693Z,11.03
2018-06-16T15:10:14.023Z,8.83
2018-06-16T15:12:44.101Z,8.00
2018-06-16T15:15:13.396Z,11.10
2018-06-16T15:17:42.749Z,10.23
2018-06-16T15:20:11.757Z,9.87
2018-06-16T15:22:40.721Z,7.10
2018-06-16T15:25:09.887Z,8.70
2018-06-16T15:27:39.250Z,9.70
2018-06-16T15:30:08.632Z,10.77
2018-06-16T15:32:38.792Z,8.37
2018-06-16T15:35:08.199Z,9.07
2018-06-16T15:37:37.628Z,13.90
2018-06-16T15:40:07.052Z,7.63
2018-06-16T15:42:36.346Z,9.37
2018-06-16T15:45:07.128Z,9.37
2018-06-16T15:47:36.523Z,8.43
2018-06-16T15:50:06.127Z,8.83
2018-06-16T15:52:35.509Z,7.40
2018-06-16T15:55:05.075Z,7.00
2018-06-16T15:57:34.326Z,8.23
2018-06-16T16:00:05.179Z,8.17
2018-06-16T16:02:34.461Z,6.40
2018-06-16T16:05:03.776Z,7.53
2018-06-16T16:07:33.916Z,7.37
2018-06-16T16:10:03.270Z,8.30
2018-06-16T16:12:32.325Z,9.73
2018-06-16T16:15:01.583Z,7.77
2018-06-16T16:17:30.885Z,6.47
2018-06-16T16:20:00.255Z,5.70
2018-06-16T16:22:29.554Z,7.77
2018-06-16T16:24:58.853Z,7.03
2018-06-16T16:27:28.221Z,4.67
2018-06-16T16:29:57.545Z,5.13
2018-06-16T16:32:26.917Z,5.30
2018-06-16T16:34:56.269Z,4.90
2018-06-16T16:37:25.549Z,9.63
2018-06-16T16:39:55.240Z,5.63
2018-06-16T16:42:24.574Z,4.97
2018-06-16T16:44:54.104Z,5.57
2018-06-16T16:47:23.611Z,4.93
2018-06-16T16:49:52.972Z,6.50
2018-06-16T16:52:22.261Z,5.07
2018-06-16T16:54:51.565Z,4.80
2018-06-16T16:57:20.799Z,7.13
2018-06-16T16:59:50.155Z,4.60
2018-06-16T17:02:19.702Z,5.30
2018-06-16T17:04:49.660Z,4.43
2018-06-16T17:07:19.675Z,8.70
2018-06-16T17:09:48.932Z,7.30
2018-06-16T17:12:18.200Z,8.00
2018-06-16T17:14:47.528Z,7.07
2018-06-16T17:17:16.830Z,5.40
2018-06-16T17:19:46.267Z,4.33
2018-06-16T17:22:15.535Z,5.87
2018-06-16T17:24:45.068Z,8.60
2018-06-16T17:27:14.508Z,13.20
2018-06-16T17:29:43.746Z,5.77
2018-06-16T17:32:13.071Z,4.33
2018-06-16T17:34:42.329Z,8.33
2018-06-16T17:37:11.613Z,6.07
2018-06-16T17:39:40.557Z,5.77
2018-06-16T17:42:10.202Z,4.67
2018-06-16T17:44:39.581Z,6.43
2018-06-16T17:47:09.784Z,8.40
2018-06-16T17:49:39.289Z,16.33
2018-06-16T17:52:08.693Z,6.93
2018-06-16T17:54:37.948Z,5.77
2018-06-16T17:57:07.232Z,5.07
2018-06-16T17:59:36.660Z,6.50
2018-06-16T18:02:05.931Z,5.87
2018-06-16T18:04:35.206Z,5.30
2018-06-16T18:07:04.543Z,7.00
2018-06-16T18:09:33.840Z,9.57
2018-06-16T18:12:03.165Z,8.10
2018-06-16T18:14:32.417Z,5.43
2018-06-16T18:17:01.414Z,5.53
2018-06-16T18:19:30.572Z,5.20
2018-06-16T18:21:59.943Z,7.93
2018-06-16T18:24:29.184Z,7.07
2018-06-16T18:26:58.493Z,5.40
2018-06-16T18:29:28.107Z,6.10
2018-06-16T18:31:57.416Z,7.90
2018-06-16T18:34:26.733Z,5.80
2018-06-16T18:36:55.988Z,4.20
2018-06-16T18:39:25.267Z,9.10
2018-06-16T18:41:54.586Z,5.37
2018-06-16T18:44:23.897Z,8.53
2018-06-16T18:46:53.195Z,5.33
2018-06-16T18:49:22.483Z,5.60
2018-06-16T18:51:51.776Z,7.20
2018-06-16T18:54:21.121Z,6.30
2018-06-16T18:56:50.442Z,7.70
2018-06-16T18:59:19.686Z,6.40
2018-06-16T19:01:48.984Z,6.03
2018-06-16T19:04:18.312Z,6.50
2018-06-16T19:06:47.749Z,8.90
2018-06-16T19:09:17.058Z,7.10
2018-06-16T19:11:46.639Z,6.63
2018-06-16T19:14:16.008Z,6.50
2018-06-16T19:16:45.358Z,11.63
2018-06-16T19:19:14.850Z,7.47
2018-06-16T19:21:44.356Z,13.40
2018-06-16T19:24:13.724Z,7.53
2018-06-16T19:26:43.091Z,8.57
2018-06-16T19:29:12.033Z,13.70
2018-06-16T19:31:41.236Z,8.43
2018-06-16T19:34:10.541Z,17.93
2018-06-16T19:36:39.785Z,11.73
2018-06-16T19:39:11.180Z,7.83
2018-06-16T19:41:41.338Z,9.47
2018-06-16T19:44:10.523Z,10.10
2018-06-16T19:46:39.680Z,10.03
2018-06-16T19:49:09.073Z,11.90
2018-06-16T19:51:38.445Z,10.63
2018-06-16T19:54:07.377Z,8.77
2018-06-16T19:56:36.547Z,13.67
2018-06-16T19:59:05.958Z,8.17
2018-06-16T20:01:35.231Z,10.23
2018-06-16T20:04:04.552Z,17.00
2018-06-16T20:06:33.834Z,13.50
2018-06-16T20:09:03.291Z,19.50
2018-06-16T20:11:32.563Z,15.17
2018-06-16T20:14:02.211Z,16.83
2018-06-16T20:16:31.980Z,14.73
2018-06-16T20:19:01.236Z,12.17
2018-06-16T20:21:30.536Z,12.80
2018-06-16T20:23:59.869Z,19.23
2018-06-16T20:26:29.263Z,14.30
2018-06-16T20:28:58.579Z,18.40
2018-06-16T20:31:27.861Z,18.20
2018-06-16T20:33:56.967Z,14.90
2018-06-16T20:36:26.148Z,16.77
2018-06-16T20:38:55.103Z,14.93
2018-06-16T20:41:24.434Z,15.20
2018-06-16T20:43:53.758Z,14.00
2018-06-16T20:46:23.055Z,17.23
2018-06-16T20:48:52.402Z,14.90
2018-06-16T20:51:21.736Z,15.67
2018-06-16T20:53:51.025Z,15.70
2018-06-16T20:56:20.309Z,17.30
2018-06-16T20:58:49.662Z,13.87
2018-06-16T21:01:19.207Z,17.63
2018-06-16T21:03:48.713Z,19.60
2018-06-16T21:06:19.226Z,18.77
2018-06-16T21:08:48.490Z,11.00
2018-06-16T21:11:17.769Z,10.90
2018-06-16T21:13:47.246Z,12.27
2018-06-16T21:16:16.570Z,11.50
2018-06-16T21:18:45.554Z,12.10
2018-06-16T21:21:14.788Z,12.80
2018-06-16T21:23:44.212Z,12.93
2018-06-16T21:26:13.530Z,15.13
2018-06-16T21:28:42.861Z,12.40
2018-06-16T21:31:12.155Z,9.40
2018-06-16T21:33:41.405Z,12.33
2018-06-16T21:36:10.682Z,13.33
2018-06-16T21:38:40.004Z,14.40
2018-06-16T21:41:09.272Z,14.07
2018-06-16T21:43:38.518Z,11.57
2018-06-16T21:46:07.844Z,17.63
2018-06-16T21:48:37.152Z,13.37
2018-06-16T21:51:06.453Z,11.97
2018-06-16T21:53:35.732Z,10.73
2018-06-16T21:56:05.171Z,8.13
2018-06-16T21:58:34.502Z,8.97
2018-06-16T22:01:03.845Z,7.77
2018-06-16T22:03:33.116Z,6.00
2018-06-16T22:06:02.416Z,8.17
2018-06-16T22:08:32.267Z,7.73
2018-06-16T22:11:02.876Z,8.67
2018-06-16T22:13:32.499Z,7.33
2018-06-16T22:16:01.832Z,8.60
2018-06-16T22:18:31.202Z,5.80
2018-06-16T22:21:00.523Z,3.63
2018-06-16T22:23:30.113Z,6.07
2018-06-16T22:26:00.184Z,7.20
2018-06-16T22:28:29.605Z,4.27
2018-06-16T22:30:58.894Z,2.30
2018-06-16T22:33:28.502Z,4.10
2018-06-16T22:35:58.613Z,2.37
2018-06-16T22:38:28.193Z,5.50
2018-06-16T22:40:57.639Z,3.70
2018-06-16T22:43:26.954Z,3.60
2018-06-16T22:45:56.316Z,5.03
2018-06-16T22:48:25.673Z,2.27
2018-06-16T22:50:55.994Z,5.47
2018-06-16T22:53:25.379Z,3.37
2018-06-16T22:55:54.643Z,3.00
2018-06-16T22:58:23.969Z,3.20
2018-06-16T23:00:53.243Z,6.00
2018-06-16T23:03:22.544Z,2.60
2018-06-16T23:05:51.519Z,5.33
2018-06-16T23:08:20.717Z,2.53
2018-06-16T23:10:49.981Z,6.07
2018-06-16T23:13:19.461Z,3.33
2018-06-16T23:15:48.767Z,2.93
2018-06-16T23:18:18.015Z,4.80
2018-06-16T23:20:47.352Z,3.63
2018-06-16T23:23:16.682Z,4.07
2018-06-16T23:25:45.962Z,4.10
2018-06-16T23:28:15.245Z,5.23
2018-06-16T23:30:44.593Z,4.53
2018-06-16T23:33:13.960Z,2.83
2018-06-16T23:35:43.255Z,4.90
2018-06-16T23:38:12.567Z,4.93
2018-06-16T23:40:42.208Z,3.27
2018-06-16T23:43:11.462Z,2.90
2018-06-16T23:45:40.701Z,4.93
2018-06-16T23:48:10.006Z,4.30
2018-06-16T23:50:39.299Z,5.27
2018-06-16T23:53:08.658Z,5.53
2018-06-16T23:55:37.938Z,4.63
2018-06-16T23:58:07.297Z,6.47
